Time;durP1;ratioP1;P1;durP2;ratioP2;P2;SDS_P1;SDS_P2;PMS_P1;PMS_P2;Temp;Humidity;BMP_temperature;BMP_pressure;BME280_temperature;BME280_humidity;BME280_pressure;Samples;Min_cycle;Max_cycle;Signal;HPM_P1;HPM_P2
2022/09/28 00:01:06;;;;;;;7.17;1.40;;;;;;;-145.69;100.00;70821.41;5033774;28;20196;-74
2022/09/28 00:03:35;;;;;;;6.63;1.60;;;;;;;-145.69;100.00;70817.41;5034022;28;20204;-73
2022/09/28 00:06:03;;;;;;;7.10;1.50;;;;;;;-145.69;100.00;70813.44;5033522;28;20437;-74
2022/09/28 00:08:29;;;;;;;5.23;1.73;;;;;;;-145.69;100.00;70807.47;5033673;28;20571;-74
2022/09/28 00:10:56;;;;;;;7.43;1.20;;;;;;;-145.69;100.00;70809.47;5032733;28;20204;-74
2022/09/28 00:13:24;;;;;;;4.27;1.10;;;;;;;-145.69;100.00;70801.50;5033873;28;20207;-74
2022/09/28 00:15:59;;;;;;;4.67;1.53;;;;;;;-145.69;100.00;70797.53;5033576;28;20263;-74
2022/09/28 00:18:26;;;;;;;5.43;1.00;;;;;;;-145.69;100.00;70785.59;5033680;28;20234;-74
2022/09/28 00:21:01;;;;;;;4.70;0.83;;;;;;;-145.69;100.00;70783.59;5033564;28;20682;-74
2022/09/28 00:23:27;;;;;;;4.93;0.97;;;;;;;-145.69;100.00;70775.63;5033516;28;20207;-73
2022/09/28 00:25:54;;;;;;;4.63;1.10;;;;;;;-145.69;100.00;70781.59;5033604;28;20211;-74
2022/09/28 00:28:20;;;;;;;3.20;0.70;;;;;;;-145.69;100.00;70777.63;5033526;28;20238;-73
2022/09/28 00:30:47;;;;;;;4.03;0.70;;;;;;;-145.69;100.00;70763.69;5033235;28;20196;-74
2022/09/28 00:33:13;;;;;;;2.33;0.97;;;;;;;-145.69;100.00;70761.72;5030958;28;20204;-74
2022/09/28 00:35:40;;;;;;;3.33;0.80;;;;;;;-145.69;100.00;70757.72;5033201;28;20197;-74
2022/09/28 00:38:08;;;;;;;4.13;1.17;;;;;;;-145.69;100.00;70741.81;5033484;28;20200;-73
2022/09/28 00:40:35;;;;;;;4.37;1.07;;;;;;;-145.69;100.00;70739.81;5033174;28;20200;-72
2022/09/28 00:43:17;;;;;;;6.43;1.23;;;;;;;-145.69;100.00;70741.81;5032943;28;20200;-73
2022/09/28 00:45:43;;;;;;;3.73;0.90;;;;;;;-145.69;100.00;70735.84;5033210;28;20223;-74
2022/09/28 00:48:11;;;;;;;2.37;0.73;;;;;;;-145.69;100.00;70739.81;5033002;28;20206;-73
2022/09/28 00:50:38;;;;;;;3.47;1.03;;;;;;;-145.69;100.00;70729.88;5032993;28;20208;-74
2022/09/28 00:53:14;;;;;;;2.10;1.03;;;;;;;-145.69;100.00;70719.94;5033020;28;20679;-73
2022/09/28 00:55:45;;;;;;;1.77;0.73;;;;;;;-145.69;100.00;70702.03;5033099;28;20601;-73
2022/09/28 00:58:17;;;;;;;5.33;1.27;;;;;;;-145.69;100.00;70698.03;5033020;28;20208;-74
2022/09/28 01:00:44;;;;;;;2.83;1.20;;;;;;;-145.69;100.00;70694.06;5032398;28;20188;-73
2022/09/28 01:03:12;;;;;;;4.13;0.70;;;;;;;-145.69;100.00;70690.09;5033046;28;20196;-73
2022/09/28 01:05:39;;;;;;;4.67;1.13;;;;;;;-145.69;100.00;70674.16;5032998;28;20207;-74
2022/09/28 01:08:07;;;;;;;3.23;1.00;;;;;;;-145.69;100.00;70670.19;5032952;28;20208;-73
2022/09/28 01:10:35;;;;;;;8.07;1.07;;;;;;;-145.69;100.00;70674.16;5032615;28;20204;-74
2022/09/28 01:13:01;;;;;;;4.40;1.20;;;;;;;-145.69;100.00;70672.19;5032719;28;20204;-74
2022/09/28 01:15:29;;;;;;;14.40;1.20;;;;;;;-145.69;100.00;70676.16;5032779;28;20204;-74
2022/09/28 01:18:07;;;;;;;5.07;1.17;;;;;;;-145.69;100.00;70660.25;5033038;28;20246;-73
2022/09/28 01:20:51;;;;;;;7.67;1.07;;;;;;;-145.69;100.00;70654.28;5032870;28;20261;-73
2022/09/28 01:23:53;;;;;;;9.73;1.37;;;;;;;-145.69;100.00;70658.25;5036145;28;20203;-74
2022/09/28 01:26:52;;;;;;;7.63;1.30;;;;;;;-145.69;100.00;70644.31;5036762;28;20203;-74
2022/09/28 01:29:32;;;;;;;7.97;1.30;;;;;;;-145.69;100.00;70638.34;5036827;28;20228;-73
2022/09/28 01:32:05;;;;;;;5.80;1.40;;;;;;;-145.69;100.00;70638.34;5017171;28;20200;-74
2022/09/28 01:34:38;;;;;;;7.23;1.60;;;;;;;-145.69;100.00;70638.34;5016986;28;20212;-73
2022/09/28 01:37:09;;;;;;;10.50;1.70;;;;;;;-145.69;100.00;70638.34;5017069;28;20571;-74
2022/09/28 01:39:41;;;;;;;5.23;1.10;;;;;;;-145.69;100.00;70638.34;5016995;28;20205;-73
2022/09/28 01:42:13;;;;;;;6.57;1.40;;;;;;;-145.69;100.00;70640.34;5016419;28;20207;-73
2022/09/28 01:44:45;;;;;;;10.97;1.70;;;;;;;-145.69;100.00;70636.38;5016761;28;20209;-73
2022/09/28 01:47:15;;;;;;;7.83;1.30;;;;;;;-145.69;100.00;70634.38;5016592;28;20212;-74
2022/09/28 01:49:45;;;;;;;5.53;1.50;;;;;;;-145.69;100.00;70630.41;5016756;28;20235;-72
2022/09/28 01:52:18;;;;;;;3.33;1.10;;;;;;;-145.69;100.00;70624.44;5016692;28;20204;-73
2022/09/28 01:54:49;;;;;;;5.13;1.60;;;;;;;-145.69;100.00;70614.47;5016522;28;20211;-74
2022/09/28 01:57:21;;;;;;;5.47;1.20;;;;;;;-145.69;100.00;70620.44;5016673;28;20205;-73
2022/09/28 01:59:55;;;;;;;5.20;1.43;;;;;;;-145.69;100.00;70626.41;5019381;28;20200;-74
2022/09/28 02:02:26;;;;;;;5.97;1.07;;;;;;;-145.69;100.00;70626.41;5036014;28;20200;-74
2022/09/28 02:04:57;;;;;;;5.03;1.00;;;;;;;-145.69;100.00;70632.38;5035794;28;20607;-74
2022/09/28 02:07:29;;;;;;;4.93;1.07;;;;;;;-145.69;100.00;70626.41;5035940;28;20195;-74
2022/09/28 02:10:00;;;;;;;3.03;1.07;;;;;;;-145.69;100.00;70630.41;5036136;28;20232;-73
2022/09/28 02:12:33;;;;;;;5.90;1.13;;;;;;;-145.69;100.00;70630.41;5035934;28;20211;-74
2022/09/28 02:15:10;;;;;;;4.60;1.10;;;;;;;-145.69;100.00;70628.41;5035680;28;20223;-75
2022/09/28 02:17:37;;;;;;;7.60;0.90;;;;;;;-145.69;100.00;70618.47;5015975;28;20264;-74
2022/09/28 02:20:04;;;;;;;3.67;0.90;;;;;;;-145.69;100.00;70622.44;5016256;28;20214;-75
2022/09/28 02:22:36;;;;;;;5.00;1.00;;;;;;;-145.69;100.00;70620.44;5016125;28;20263;-74
2022/09/28 02:25:08;;;;;;;1.40;0.87;;;;;;;-145.69;100.00;70622.44;5015859;28;20205;-73
2022/09/28 02:27:41;;;;;;;3.43;0.90;;;;;;;-145.69;100.00;70618.47;5029157;28;20196;-73
2022/09/28 02:30:10;;;;;;;2.60;0.90;;;;;;;-145.69;100.00;70618.47;5035427;28;20227;-73
2022/09/28 02:32:41;;;;;;;5.63;0.93;;;;;;;-145.69;100.00;70612.50;5035555;28;20223;-73
2022/09/28 02:35:08;;;;;;;1.40;0.93;;;;;;;-145.69;100.00;70602.56;5034953;28;20200;-75
2022/09/28 02:37:35;;;;;;;1.53;0.73;;;;;;;-145.69;100.00;70602.56;5034754;28;20666;-74
2022/09/28 02:40:02;;;;;;;2.33;0.80;;;;;;;-145.69;100.00;70600.56;5034309;28;20200;-75
2022/09/28 02:42:38;;;;;;;2.37;0.70;;;;;;;-145.69;100.00;70592.59;5035090;28;20208;-75
2022/09/28 02:45:17;;;;;;;0.77;0.77;;;;;;;-145.69;100.00;70586.63;5035559;28;20200;-74
2022/09/28 02:47:57;;;;;;;1.20;0.67;;;;;;;-145.69;100.00;70584.66;5035570;28;20207;-74
2022/09/28 02:50:34;;;;;;;2.27;0.73;;;;;;;-145.69;100.00;70586.63;5035058;28;20228;-75
2022/09/28 02:53:21;;;;;;;1.13;0.60;;;;;;;-145.69;100.00;70582.66;5035229;28;20662;-74
2022/09/28 02:56:05;;;;;;;1.17;0.50;;;;;;;-145.69;100.00;70574.69;5035443;28;20200;-74
2022/09/28 02:58:41;;;;;;;1.90;0.70;;;;;;;-145.69;100.00;70570.72;5015436;28;20201;-74
2022/09/28 03:01:20;;;;;;;2.70;0.67;;;;;;;-145.69;100.00;70566.75;5015096;28;20655;-74
2022/09/28 03:03:54;;;;;;;3.60;0.70;;;;;;;-145.69;100.00;70564.75;5015468;28;20228;-75
2022/09/28 03:06:27;;;;;;;0.93;0.57;;;;;;;-145.69;100.00;70574.69;5015359;28;20209;-74
2022/09/28 03:09:00;;;;;;;0.90;0.70;;;;;;;-145.69;100.00;70568.72;5015150;28;20205;-75
2022/09/28 03:11:31;;;;;;;2.30;0.70;;;;;;;-145.69;100.00;70558.78;5014996;28;20197;-74
2022/09/28 03:13:59;;;;;;;1.37;0.77;;;;;;;-145.69;100.00;70562.75;5015042;28;20209;-74
2022/09/28 03:16:27;;;;;;;1.70;0.80;;;;;;;-145.69;100.00;70558.78;5014666;28;20240;-74
2022/09/28 03:18:54;;;;;;;1.23;0.80;;;;;;;-145.69;100.00;70554.81;5014746;28;20806;-74
2022/09/28 03:21:20;;;;;;;1.20;0.60;;;;;;;-145.69;100.00;70546.84;5014964;28;20678;-74
2022/09/28 03:23:47;;;;;;;0.70;0.70;;;;;;;-145.69;100.00;70550.81;5014992;28;20205;-74
2022/09/28 03:26:15;;;;;;;0.60;0.60;;;;;;;-145.69;100.00;70546.84;5016440;28;20323;-74
2022/09/28 03:28:42;;;;;;;1.97;0.70;;;;;;;-145.69;100.00;70532.91;5034251;28;20654;-73
2022/09/28 03:31:08;;;;;;;0.60;0.60;;;;;;;-145.69;100.00;70526.94;5033900;28;20846;-74
2022/09/28 03:33:36;;;;;;;2.13;0.70;;;;;;;-145.69;100.00;70532.91;5034660;28;20207;-74
2022/09/28 03:36:03;;;;;;;1.37;0.80;;;;;;;-145.69;100.00;70530.94;5034520;28;20206;-74
2022/09/28 03:38:29;;;;;;;3.90;0.60;;;;;;;-145.69;100.00;70534.91;5034416;28;20196;-74
2022/09/28 03:40:57;;;;;;;0.50;0.50;;;;;;;-145.69;100.00;70530.94;5034325;28;20204;-74
2022/09/28 03:43:24;;;;;;;1.07;0.80;;;;;;;-145.69;100.00;70534.91;5034461;28;20212;-74
2022/09/28 03:45:52;;;;;;;1.10;0.70;;;;;;;-145.69;100.00;70528.94;5033949;28;20207;-74
2022/09/28 03:48:21;;;;;;;2.17;0.50;;;;;;;-145.69;100.00;70530.94;5034071;28;20250;-74
2022/09/28 03:50:52;;;;;;;1.53;0.70;;;;;;;-145.69;100.00;70526.94;5034244;28;20228;-74
2022/09/28 03:53:19;;;;;;;0.53;0.50;;;;;;;-145.69;100.00;70519.00;5033785;28;20571;-74
2022/09/28 03:55:45;;;;;;;2.03;0.70;;;;;;;-145.69;100.00;70519.00;5034084;28;20236;-74
2022/09/28 03:58:12;;;;;;;1.47;0.70;;;;;;;-145.69;100.00;70517.00;5034161;28;20208;-74
2022/09/28 04:00:38;;;;;;;0.60;0.60;;;;;;;-145.69;100.00;70515.00;5034205;28;20215;-74
2022/09/28 04:03:05;;;;;;;0.70;0.70;;;;;;;-145.69;100.00;70519.00;5033798;28;20204;-74
2022/09/28 04:05:31;;;;;;;1.20;0.65;;;;;;;-145.69;100.00;70524.97;5033191;28;20445;-74
2022/09/28 04:07:59;;;;;;;0.80;0.60;;;;;;;-145.69;100.00;70503.06;5033578;28;20712;-73
2022/09/28 04:10:26;;;;;;;2.67;0.70;;;;;;;-145.69;100.00;70507.06;5033651;28;20250;-74
2022/09/28 04:12:54;;;;;;;0.63;0.60;;;;;;;-145.69;100.00;70487.16;5033934;28;20200;-74
2022/09/28 04:15:21;;;;;;;1.23;0.67;;;;;;;-145.69;100.00;70489.16;5033575;28;20686;-74
2022/09/28 04:17:48;;;;;;;1.47;0.60;;;;;;;-145.69;100.00;70483.19;5033672;28;20678;-74
2022/09/28 04:20:14;;;;;;;1.03;0.60;;;;;;;-145.69;100.00;70485.16;5033353;28;20208;-74
2022/09/28 04:22:41;;;;;;;0.50;0.50;;;;;;;-145.69;100.00;70461.31;5033100;28;20192;-74
2022/09/28 04:25:09;;;;;;;1.10;0.53;;;;;;;-145.69;100.00;70471.25;5033795;28;20203;-74
2022/09/28 04:30:20;;;;;;;0.80;0.57;;;;;;;-145.69;100.00;70467.28;5033374;28;20227;-74
2022/09/28 04:32:47;;;;;;;0.63;0.43;;;;;;;-145.69;100.00;70465.28;5032818;28;20204;-74
2022/09/28 04:35:14;;;;;;;2.23;0.50;;;;;;;-145.69;100.00;70459.31;5033304;28;20211;-73
2022/09/28 04:37:40;;;;;;;0.53;0.53;;;;;;;-145.69;100.00;70455.34;5033147;28;20287;-74
2022/09/28 04:40:08;;;;;;;1.73;0.57;;;;;;;-145.69;100.00;70455.34;5033468;28;20203;-74
2022/09/28 04:42:36;;;;;;;2.10;0.50;;;;;;;-145.69;100.00;70459.31;5033322;28;20257;-74
2022/09/28 04:45:03;;;;;;;1.70;0.77;;;;;;;-145.69;100.00;70463.28;5033107;28;20199;-73
2022/09/28 04:47:30;;;;;;;0.43;0.43;;;;;;;-145.69;100.00;70463.28;5033070;28;20232;-74
2022/09/28 04:49:56;;;;;;;0.80;0.70;;;;;;;-145.69;100.00;70459.31;5032871;28;20649;-74
2022/09/28 04:52:23;;;;;;;0.43;0.40;;;;;;;-145.69;100.00;70467.28;5032666;28;20666;-75
2022/09/28 04:54:49;;;;;;;1.80;0.60;;;;;;;-145.69;100.00;70459.31;5033101;28;20219;-74
2022/09/28 04:57:16;;;;;;;1.03;0.60;;;;;;;-145.69;100.00;70463.28;5032430;28;20200;-74
2022/09/28 04:59:43;;;;;;;1.37;0.73;;;;;;;-145.69;100.00;70461.31;5033007;28;20203;-74
2022/09/28 05:02:10;;;;;;;0.83;0.70;;;;;;;-145.69;100.00;70463.28;5032555;28;20678;-74
2022/09/28 05:04:37;;;;;;;2.67;0.50;;;;;;;-145.69;100.00;70469.25;5032859;28;20204;-74
2022/09/28 05:07:03;;;;;;;0.90;0.57;;;;;;;-145.69;100.00;70471.25;5033042;28;20200;-74
2022/09/28 05:09:30;;;;;;;5.20;0.80;;;;;;;-145.69;100.00;70467.28;5032805;28;20655;-73
2022/09/28 05:11:56;;;;;;;0.60;0.50;;;;;;;-145.69;100.00;70467.28;5033038;28;20200;-74
2022/09/28 05:14:23;;;;;;;0.33;0.33;;;;;;;-145.69;100.00;70469.25;5032657;28;20196;-73
2022/09/28 05:16:51;;;;;;;0.57;0.40;;;;;;;-145.69;100.00;70463.28;5032510;28;20266;-73
2022/09/28 05:19:17;;;;;;;1.87;0.70;;;;;;;-145.69;100.00;70463.28;5033081;28;20204;-75
2022/09/28 05:21:45;;;;;;;1.50;0.73;;;;;;;-145.69;100.00;70455.34;5032928;28;20211;-74
2022/09/28 05:24:12;;;;;;;1.13;0.67;;;;;;;-145.69;100.00;70455.34;5032290;28;20200;-74
2022/09/28 05:26:38;;;;;;;0.40;0.40;;;;;;;-145.69;100.00;70459.31;5032708;28;20203;-74
2022/09/28 05:29:05;;;;;;;0.83;0.50;;;;;;;-145.69;100.00;70445.38;5032595;28;20675;-74
2022/09/28 05:31:31;;;;;;;1.00;0.60;;;;;;;-145.69;100.00;70439.41;5032114;28;20219;-75
2022/09/28 05:33:59;;;;;;;0.50;0.50;;;;;;;-145.69;100.00;70447.38;5032104;28;20587;-74
2022/09/28 05:36:26;;;;;;;1.17;0.77;;;;;;;-145.69;100.00;70445.38;5032614;28;20654;-74
2022/09/28 05:38:53;;;;;;;1.37;0.80;;;;;;;-145.69;100.00;70455.34;5032485;28;20710;-74
2022/09/28 05:41:19;;;;;;;0.70;0.70;;;;;;;-145.69;100.00;70459.31;5032569;28;20663;-74
2022/09/28 05:43:46;;;;;;;0.73;0.67;;;;;;;-145.69;100.00;70447.38;5032394;28;20543;-75
2022/09/28 05:46:12;;;;;;;1.73;0.80;;;;;;;-145.69;100.00;70449.38;5032393;28;20214;-74
2022/09/28 05:48:39;;;;;;;0.70;0.70;;;;;;;-145.69;100.00;70439.41;5032455;28;20208;-73
2022/09/28 05:51:08;;;;;;;0.83;0.57;;;;;;;-145.69;100.00;70447.38;5032355;28;20232;-74
2022/09/28 05:53:35;;;;;;;0.60;0.60;;;;;;;-145.69;100.00;70439.41;5032087;28;20657;-73
2022/09/28 05:56:02;;;;;;;0.50;0.50;;;;;;;-145.69;100.00;70435.44;5032471;28;20226;-74
2022/09/28 05:58:28;;;;;;;4.17;0.93;;;;;;;-145.69;100.00;70431.47;5032367;28;20206;-74
2022/09/28 06:00:56;;;;;;;1.50;0.50;;;;;;;-145.69;100.00;70447.38;5032363;28;20200;-75
2022/09/28 06:03:22;;;;;;;0.53;0.50;;;;;;;-145.69;100.00;70453.34;5032499;28;20250;-73
2022/09/28 06:05:49;;;;;;;0.40;0.40;;;;;;;-145.69;100.00;70463.28;5032384;28;20204;-74
2022/09/28 06:08:17;;;;;;;2.10;0.50;;;;;;;-145.69;100.00;70477.22;5033670;28;20196;-76
2022/09/28 06:10:43;;;;;;;1.03;0.83;;;;;;;-145.69;100.00;70493.13;5036027;28;20224;-74
2022/09/28 06:13:10;;;;;;;1.27;1.17;;;;;;;-145.69;100.00;70501.09;5035740;28;20382;-76
2022/09/28 06:15:37;;;;;;;1.27;1.10;;;;;;;-145.69;100.00;70526.94;5035967;28;20250;-74
2022/09/28 06:18:06;;;;;;;2.07;1.10;;;;;;;-145.69;100.00;70542.88;5035883;28;20290;-73
2022/09/28 06:20:34;;;;;;;1.10;1.00;;;;;;;-145.69;100.00;70540.88;5035932;28;20207;-74
2022/09/28 06:23:01;;;;;;;0.90;0.90;;;;;;;-145.69;100.00;70538.88;5035570;28;20204;-74
2022/09/28 06:25:29;;;;;;;0.97;0.83;;;;;;;-145.69;100.00;70542.88;5034841;28;20203;-74
2022/09/28 06:27:56;;;;;;;1.10;0.90;;;;;;;-145.69;100.00;70556.78;5035713;28;20215;-74
2022/09/28 06:30:25;;;;;;;4.00;1.00;;;;;;;-145.69;100.00;70562.75;5035705;28;20228;-73
2022/09/28 06:32:53;;;;;;;1.40;1.03;;;;;;;-145.69;100.00;70564.75;5035406;28;20232;-73
2022/09/28 06:35:20;;;;;;;4.60;1.50;;;;;;;-145.69;100.00;70568.72;5035622;28;20296;-74
2022/09/28 06:37:47;;;;;;;1.70;1.10;;;;;;;-145.69;100.00;70556.78;5035075;28;20227;-72
2022/09/28 06:40:14;;;;;;;3.50;1.50;;;;;;;-145.69;100.00;70552.81;5035376;28;20204;-73
2022/09/28 06:42:41;;;;;;;3.03;1.30;;;;;;;-145.69;100.00;70562.75;5035079;28;20200;-73
2022/09/28 06:45:09;;;;;;;2.97;1.33;;;;;;;-145.69;100.00;70566.75;5035545;28;20208;-73
2022/09/28 06:47:36;;;;;;;1.47;1.10;;;;;;;-145.69;100.00;70564.75;5035511;28;20200;-72
2022/09/28 06:50:03;;;;;;;2.20;1.07;;;;;;;-145.69;100.00;70580.66;5035362;28;20204;-74
2022/09/28 06:52:29;;;;;;;5.20;1.83;;;;;;;-145.69;100.00;70580.66;5034853;28;20268;-75
2022/09/28 06:54:56;;;;;;;41.70;21.93;;;;;;;-145.69;100.00;70586.63;5034777;28;20200;-73
2022/09/28 06:57:22;;;;;;;21.50;11.93;;;;;;;-145.69;100.00;70574.69;5035219;28;20203;-74
2022/09/28 06:59:50;;;;;;;4.07;2.53;;;;;;;-145.69;100.00;70578.69;5034999;28;20196;-74
2022/09/28 07:02:16;;;;;;;6.67;2.17;;;;;;;-145.69;100.00;70582.66;5035148;28;20207;-73
2022/09/28 07:04:43;;;;;;;2.87;1.70;;;;;;;-145.69;100.00;70586.63;5035137;28;20200;-73
2022/09/28 07:07:10;;;;;;;4.90;2.47;;;;;;;-145.69;100.00;70586.63;5034851;28;20208;-73
2022/09/28 07:09:37;;;;;;;6.70;4.07;;;;;;;-145.69;100.00;70586.63;5035197;28;20251;-73
2022/09/28 07:12:04;;;;;;;4.53;1.63;;;;;;;-145.69;100.00;70586.63;5034797;28;20698;-73
2022/09/28 07:14:33;;;;;;;1.50;1.17;;;;;;;-145.69;100.00;70602.56;5035032;28;20231;-75
2022/09/28 07:17:01;;;;;;;8.30;1.83;;;;;;;-145.69;100.00;70612.50;5034714;28;20228;-75
2022/09/28 07:19:27;;;;;;;2.33;1.00;;;;;;;-145.69;100.00;70604.53;5034125;28;20211;-74
2022/09/28 07:21:56;;;;;;;6.13;1.80;;;;;;;-145.69;100.00;70602.56;5034415;28;20204;-74
2022/09/28 07:24:22;;;;;;;1.87;1.13;;;;;;;-145.69;100.00;70604.53;5034891;28;20200;-73
2022/09/28 07:26:49;;;;;;;2.50;1.20;;;;;;;-145.69;100.00;70610.50;5034783;28;20200;-73
2022/09/28 07:29:16;;;;;;;1.20;0.90;;;;;;;-145.69;100.00;70630.41;5034722;28;20207;-74
2022/09/28 07:31:42;;;;;;;1.87;1.07;;;;;;;-145.69;100.00;70626.41;5034502;28;20236;-73
2022/09/28 07:34:10;;;;;;;3.27;1.33;;;;;;;-145.69;100.00;70610.50;5034169;28;20208;-74
2022/09/28 07:36:37;;;;;;;1.00;0.73;;;;;;;-145.69;100.00;70610.50;5034462;28;20203;-73
2022/09/28 07:39:04;;;;;;;1.60;1.00;;;;;;;-145.69;100.00;70604.53;5034519;28;20291;-73
2022/09/28 07:41:33;;;;;;;2.87;1.00;;;;;;;-145.69;100.00;70606.53;5034580;28;20204;-73
2022/09/28 07:44:04;;;;;;;2.90;1.27;;;;;;;-145.69;100.00;70620.44;5034346;28;20567;-74
2022/09/28 07:46:32;;;;;;;3.53;1.30;;;;;;;-145.69;100.00;70614.47;5034355;28;20200;-74
2022/09/28 07:48:59;;;;;;;4.57;1.83;;;;;;;-145.69;100.00;70612.50;5034178;28;20208;-74
2022/09/28 07:51:27;;;;;;;3.37;1.87;;;;;;;-145.69;100.00;70606.53;5034331;28;20255;-74
2022/09/28 07:53:53;;;;;;;2.30;1.30;;;;;;;-145.69;100.00;70590.63;5033860;28;20200;-73
2022/09/28 07:56:20;;;;;;;1.87;1.10;;;;;;;-145.69;100.00;70590.63;5034163;28;20196;-73
2022/09/28 07:58:48;;;;;;;1.93;1.57;;;;;;;-145.69;100.00;70598.56;5033777;28;20212;-73
2022/09/28 08:01:15;;;;;;;3.50;1.50;;;;;;;-145.69;100.00;70572.72;5033607;28;20270;-74
2022/09/28 08:03:44;;;;;;;2.20;1.50;;;;;;;-145.69;100.00;70572.72;5033791;28;20204;-74
2022/09/28 08:06:11;;;;;;;2.97;1.00;;;;;;;-145.69;100.00;70558.78;5033847;28;20200;-74
2022/09/28 08:08:43;;;;;;;5.07;1.67;;;;;;;-145.69;100.00;70578.69;5033902;28;20196;-74
2022/09/28 08:11:10;;;;;;;2.60;1.13;;;;;;;-145.69;100.00;70582.66;5033863;28;20228;-74
2022/09/28 08:13:37;;;;;;;3.50;1.10;;;;;;;-145.69;100.00;70590.63;5033900;28;20215;-74
2022/09/28 08:16:06;;;;;;;1.83;1.00;;;;;;;-145.69;100.00;70596.59;5033553;28;20313;-73
2022/09/28 08:18:33;;;;;;;2.40;1.57;;;;;;;-145.69;100.00;70562.75;5033575;28;20231;-73
2022/09/28 08:23:45;;;;;;;2.70;0.97;;;;;;;-145.69;100.00;70588.63;5033660;28;20283;-74
2022/09/28 08:26:12;;;;;;;1.90;0.87;;;;;;;-145.69;100.00;70590.63;5033429;28;20207;-74
2022/09/28 08:28:39;;;;;;;0.93;0.80;;;;;;;-145.69;100.00;70598.56;5033013;28;20204;-74
2022/09/28 08:31:06;;;;;;;2.03;1.40;;;;;;;-145.69;100.00;70602.56;5032532;28;20266;-73
2022/09/28 08:33:33;;;;;;;4.20;1.17;;;;;;;-145.69;100.00;70610.50;5033356;28;20215;-74
2022/09/28 08:36:03;;;;;;;3.20;1.40;;;;;;;-145.69;100.00;70592.59;5033202;28;20196;-74
2022/09/28 08:38:30;;;;;;;1.93;1.30;;;;;;;-145.69;100.00;70612.50;5033320;28;20669;-74
2022/09/28 08:41:11;;;;;;;9.03;2.43;;;;;;;-145.69;100.00;70598.56;5033223;28;20214;-73
2022/09/28 08:44:12;;;;;;;5.00;1.90;;;;;;;-145.69;100.00;70586.63;5033484;28;20286;-74
2022/09/28 08:46:42;;;;;;;2.50;1.67;;;;;;;-145.69;100.00;70586.63;5033340;28;20231;-74
2022/09/28 08:49:14;;;;;;;4.70;1.60;;;;;;;-145.69;100.00;70602.56;5033175;28;20562;-73
2022/09/28 08:51:49;;;;;;;4.27;1.80;;;;;;;-145.69;100.00;70622.44;5033262;28;20223;-73
2022/09/28 08:54:28;;;;;;;6.20;1.70;;;;;;;-145.69;100.00;70636.38;5033148;28;20203;-74
2022/09/28 08:57:01;;;;;;;3.17;1.20;;;;;;;-145.69;100.00;70642.34;5033083;28;20600;-73
2022/09/28 08:59:35;;;;;;;5.73;1.40;;;;;;;-145.69;100.00;70654.28;5033064;28;20613;-73
2022/09/28 09:02:04;;;;;;;5.90;1.77;;;;;;;-145.69;100.00;70654.28;5012060;28;20446;-74
2022/09/28 09:04:31;;;;;;;2.53;1.30;;;;;;;-145.69;100.00;70664.22;5013490;28;20227;-74
2022/09/28 09:07:17;;;;;;;6.47;2.03;;;;;;;-145.69;100.00;70654.28;5013310;28;20215;-73
2022/09/28 09:09:56;;;;;;;4.27;1.70;;;;;;;-145.69;100.00;70664.22;5013204;28;20208;-73
2022/09/28 09:12:33;;;;;;;4.07;2.03;;;;;;;-145.69;100.00;70658.25;5013345;28;20239;-74
2022/09/28 09:15:40;;;;;;;6.77;1.83;;;;;;;-145.69;100.00;70666.22;5013391;28;20204;-73
2022/09/28 09:18:21;;;;;;;5.40;1.83;;;;;;;-145.69;100.00;70674.16;5013173;28;20208;-73
2022/09/28 09:20:52;;;;;;;5.87;1.90;;;;;;;-145.69;100.00;70674.16;5013385;28;20296;-74
2022/09/28 09:23:24;;;;;;;5.77;1.50;;;;;;;-145.69;100.00;70690.09;5013306;28;20200;-73
2022/09/28 09:25:53;;;;;;;5.80;1.47;;;;;;;-145.69;100.00;70706.00;5013296;28;20211;-74
2022/09/28 09:29:07;;;;;;;3.40;1.30;;;;;;;-145.69;100.00;70721.91;5012978;28;20196;-74
2022/09/28 09:31:48;;;;;;;2.03;1.03;;;;;;;-145.69;100.00;70761.72;5029263;28;20227;-73
2022/09/28 09:34:51;;;;;;;2.50;1.20;;;;;;;-145.69;100.00;70747.78;5032919;28;20204;-73
2022/09/28 09:37:35;;;;;;;2.77;1.30;;;;;;;-145.69;100.00;70753.75;5032704;28;20207;-73
2022/09/28 09:40:23;;;;;;;3.20;1.30;;;;;;;-145.69;100.00;70761.72;5012875;28;20292;-74
2022/09/28 09:43:03;;;;;;;1.80;1.20;;;;;;;-145.69;100.00;70761.72;5013722;28;20201;-72
2022/09/28 09:45:45;;;;;;;4.60;1.20;;;;;;;-145.69;100.00;70745.78;5016716;28;20223;-74
2022/09/28 09:48:19;;;;;;;3.53;1.23;;;;;;;-145.69;100.00;70729.88;5016675;28;20277;-74
2022/09/28 09:50:49;;;;;;;7.23;1.50;;;;;;;-145.69;100.00;70747.78;5016679;28;20235;-74
2022/09/28 09:53:22;;;;;;;6.70;1.30;;;;;;;-145.69;100.00;70749.78;5016710;28;20206;-74
2022/09/28 09:55:56;;;;;;;5.33;1.40;;;;;;;-145.69;100.00;70749.78;5016619;28;20209;-74
2022/09/28 09:58:28;;;;;;;6.30;1.60;;;;;;;-145.69;100.00;70737.84;5016591;28;20208;-74
2022/09/28 10:01:04;;;;;;;3.80;1.77;;;;;;;-145.69;100.00;70753.75;5029695;28;20207;-73
2022/09/28 10:03:34;;;;;;;3.40;1.63;;;;;;;-145.69;100.00;70761.72;5036455;28;20204;-75
2022/09/28 10:06:06;;;;;;;3.40;1.27;;;;;;;-145.69;100.00;70737.84;5036233;28;20200;-74
2022/09/28 10:08:37;;;;;;;3.13;1.60;;;;;;;-145.69;100.00;70729.88;5036000;28;20673;-73
2022/09/28 10:11:09;;;;;;;3.67;1.17;;;;;;;-145.69;100.00;70751.75;5035633;28;20670;-73
2022/09/28 10:13:35;;;;;;;3.97;1.80;;;;;;;-145.69;100.00;70747.78;5036176;28;20204;-73
2022/09/28 10:16:05;;;;;;;5.80;2.47;;;;;;;-145.69;100.00;70717.94;5035839;28;20236;-73
2022/09/28 10:18:32;;;;;;;3.60;1.67;;;;;;;-145.69;100.00;70708.00;5035940;28;20219;-72
2022/09/28 10:20:58;;;;;;;6.93;1.13;;;;;;;-145.69;100.00;70694.06;5035722;28;20208;-75
2022/09/28 10:23:30;;;;;;;5.03;1.20;;;;;;;-145.69;100.00;70662.22;5036012;28;20201;-74
2022/09/28 10:26:02;;;;;;;7.30;1.27;;;;;;;-145.69;100.00;70638.34;5035201;28;20643;-75
2022/09/28 10:28:35;;;;;;;9.90;1.40;;;;;;;-145.69;100.00;70628.41;5035879;28;20204;-74
2022/09/28 10:31:34;;;;;;;9.77;1.63;;;;;;;-145.69;100.00;70614.47;5035637;28;20279;-74
2022/09/28 10:34:00;;;;;;;10.87;2.03;;;;;;;-145.69;100.00;70614.47;5035860;28;20204;-74
2022/09/28 10:36:28;;;;;;;4.53;1.43;;;;;;;-145.69;100.00;70618.47;5035702;28;20558;-74
2022/09/28 10:38:55;;;;;;;5.40;1.47;;;;;;;-145.69;100.00;70624.44;5035670;28;20227;-73
2022/09/28 10:41:22;;;;;;;7.80;1.43;;;;;;;-145.69;100.00;70638.34;5035214;28;20208;-73
2022/09/28 10:44:04;;;;;;;1.60;1.00;;;;;;;-145.69;100.00;70606.53;5035499;28;20215;-73
2022/09/28 10:46:34;;;;;;;4.37;1.57;;;;;;;-145.69;100.00;70610.50;5035606;28;20236;-73
2022/09/28 10:49:04;;;;;;;3.83;1.27;;;;;;;-145.69;100.00;70626.41;5035519;28;20215;-74
2022/09/28 10:51:40;;;;;;;4.67;1.40;;;;;;;-145.69;100.00;70660.25;5035354;28;20224;-74
2022/09/28 10:54:14;;;;;;;6.37;1.53;;;;;;;-145.69;100.00;70662.22;5026490;28;20208;-75
2022/09/28 10:56:41;;;;;;;5.90;1.70;;;;;;;-145.69;100.00;70662.22;5020944;28;20208;-74
2022/09/28 10:59:24;;;;;;;4.30;1.60;;;;;;;-145.69;100.00;70656.25;5015505;28;20212;-74
2022/09/28 11:01:56;;;;;;;4.83;1.50;;;;;;;-145.69;100.00;70658.25;5015077;28;20208;-74
2022/09/28 11:04:27;;;;;;;6.60;1.93;;;;;;;-145.69;100.00;70666.22;5015326;28;20309;-74
2022/09/28 11:06:58;;;;;;;6.00;1.67;;;;;;;-145.69;100.00;70650.28;5014921;28;20209;-75
2022/09/28 11:09:29;;;;;;;2.63;1.20;;;;;;;-145.69;100.00;70632.38;5019203;28;20200;-77
2022/09/28 11:11:56;;;;;;;3.47;1.30;;;;;;;-145.69;100.00;70630.41;5014816;28;20224;-74
2022/09/28 11:14:27;;;;;;;6.63;1.30;;;;;;;-145.69;100.00;70622.44;5015151;28;20196;-74
2022/09/28 11:17:16;;;;;;;3.70;1.20;;;;;;;-145.69;100.00;70594.59;5014976;28;20236;-74
2022/09/28 11:19:43;;;;;;;5.47;1.40;;;;;;;-145.69;100.00;70622.44;5015209;28;20778;-75
2022/09/28 11:22:26;;;;;;;4.20;1.20;;;;;;;-145.69;100.00;70616.47;5015084;28;20204;-74
2022/09/28 11:25:11;;;;;;;6.67;1.40;;;;;;;-145.69;100.00;70614.47;5015067;28;20615;-74
2022/09/28 11:27:38;;;;;;;6.10;1.40;;;;;;;-145.69;100.00;70648.31;5014855;28;20208;-74
2022/09/28 11:30:20;;;;;;;5.40;1.20;;;;;;;-145.69;100.00;70638.34;5014906;28;20197;-75